Time;durP1;ratioP1;P1;durP2;ratioP2;P2;SDS_P1;SDS_P2;PMS_P1;PMS_P2;Temp;Humidity;BMP_temperature;BMP_pressure;BME280_temperature;BME280_humidity;BME280_pressure;Samples;Min_cycle;Max_cycle;Signal;HPM_P1;HPM_P2
2022/03/16 00:00:39;;;;;;;42.45;20.50;;;7.10;99.90;;;;;;4180819;28;20049;-87
2022/03/16 00:02:40;;;;;;;41.25;20.13;;;7.10;99.90;;;;;;4180942;28;20044;-88
2022/03/16 00:04:41;;;;;;;45.17;20.67;;;7.00;99.90;;;;;;4181228;28;20494;-88
2022/03/16 00:06:42;;;;;;;51.33;20.48;;;7.00;99.90;;;;;;4180936;28;20441;-88
2022/03/16 00:08:42;;;;;;;40.00;19.27;;;8.00;99.90;;;;;;4180670;28;20064;-88
2022/03/16 00:10:43;;;;;;;37.88;18.65;;;;;;;;;;4181413;28;20097;-87
2022/03/16 00:12:44;;;;;;;46.60;19.98;;;6.90;99.90;;;;;;4182441;28;20044;-88
2022/03/16 00:14:46;;;;;;;42.08;19.92;;;7.40;99.90;;;;;;4183073;28;20394;-88
2022/03/16 00:16:47;;;;;;;44.35;21.77;;;7.10;99.90;;;;;;4182568;28;20048;-88
2022/03/16 00:18:48;;;;;;;49.22;21.63;;;;;;;;;;4183050;28;20360;-88
2022/03/16 00:20:53;;;;;;;46.10;21.10;;;;;;;;;;4182094;28;20061;-87
2022/03/16 00:22:54;;;;;;;48.72;22.80;;;;;;;;;;4181241;28;20483;-87
2022/03/16 00:24:54;;;;;;;67.18;20.73;;;7.90;99.90;;;;;;4182574;28;20103;-87
2022/03/16 00:26:55;;;;;;;51.15;21.08;;;8.00;99.90;;;;;;4182168;28;20052;-89
2022/03/16 00:28:56;;;;;;;44.40;21.98;;;6.60;99.90;;;;;;4181725;28;20056;-88
2022/03/16 00:30:56;;;;;;;48.05;23.08;;;6.80;99.90;;;;;;4182187;28;20037;-88
2022/03/16 00:32:57;;;;;;;47.78;22.05;;;7.00;99.90;;;;;;4182210;28;20098;-88
2022/03/16 00:34:58;;;;;;;51.40;21.90;;;6.70;99.90;;;;;;4182401;28;20055;-88
2022/03/16 00:36:59;;;;;;;50.40;20.92;;;7.80;99.90;;;;;;4181327;28;20468;-88
2022/03/16 00:39:00;;;;;;;60.28;22.65;;;6.70;99.90;;;;;;4182429;28;20045;-88
2022/03/16 00:41:02;;;;;;;51.22;21.58;;;7.90;99.90;;;;;;4182442;28;20102;-88
2022/03/16 00:43:02;;;;;;;47.97;22.60;;;6.00;99.90;;;;;;4182555;28;20033;-88
2022/03/16 00:45:03;;;;;;;52.83;22.48;;;7.80;99.90;;;;;;4182189;28;20110;-88
2022/03/16 00:47:05;;;;;;;56.28;23.98;;;6.60;99.90;;;;;;4181958;28;20553;-88
2022/03/16 00:49:05;;;;;;;40.78;20.48;;;6.60;99.90;;;;;;4182515;28;20048;-88
2022/03/16 00:51:08;;;;;;;52.63;21.10;;;6.60;99.90;;;;;;4183980;28;20112;-88
2022/03/16 00:53:09;;;;;;;50.63;22.13;;;;;;;;;;4183240;28;20047;-88
2022/03/16 00:55:10;;;;;;;46.53;21.23;;;;;;;;;;4181664;28;20048;-88
2022/03/16 00:57:11;;;;;;;47.15;22.50;;;;;;;;;;4182982;28;20037;-88
2022/03/16 00:59:12;;;;;;;50.08;22.83;;;;;;;;;;4183789;28;20045;-88
2022/03/16 01:01:13;;;;;;;50.58;23.60;;;;;;;;;;4182501;28;20041;-87
2022/03/16 01:03:14;;;;;;;44.70;20.70;;;;;;;;;;4182283;28;20403;-87
2022/03/16 01:05:15;;;;;;;42.22;19.42;;;;;;;;;;4182427;28;20048;-88
2022/03/16 01:07:17;;;;;;;49.72;21.15;;;;;;;;;;4184574;28;20044;-88
2022/03/16 01:09:20;;;;;;;44.78;20.25;;;;;;;;;;4185127;28;20131;-88
2022/03/16 01:11:21;;;;;;;47.83;22.35;;;;;;;;;;4184219;28;20045;-88
2022/03/16 01:13:22;;;;;;;44.78;20.70;;;;;;;;;;4183882;28;20450;-88
2022/03/16 01:15:24;;;;;;;43.42;19.95;;;;;;;;;;4183707;28;20392;-88
2022/03/16 01:17:24;;;;;;;48.30;20.83;;;6.50;99.90;;;;;;4183637;28;20081;-88
2022/03/16 01:19:26;;;;;;;44.58;21.27;;;7.40;99.90;;;;;;4183862;28;20052;-88
2022/03/16 01:21:27;;;;;;;51.67;21.73;;;7.30;99.90;;;;;;4182967;28;20049;-87
2022/03/16 01:23:28;;;;;;;45.67;21.42;;;6.30;99.90;;;;;;4183151;28;20410;-87
2022/03/16 01:25:29;;;;;;;42.85;19.17;;;6.20;99.90;;;;;;4182143;28;20457;-88
2022/03/16 01:27:30;;;;;;;49.70;20.73;;;7.20;99.90;;;;;;4183524;28;20045;-88
2022/03/16 01:29:32;;;;;;;43.65;20.98;;;7.30;99.90;;;;;;4183309;28;20044;-88
2022/03/16 01:31:34;;;;;;;48.60;20.35;;;7.00;99.90;;;;;;4184858;28;20048;-88
2022/03/16 01:33:38;;;;;;;44.42;20.75;;;6.20;99.90;;;;;;4184433;28;20068;-89
2022/03/16 01:35:38;;;;;;;42.55;19.17;;;7.10;99.90;;;;;;4184495;28;20491;-88
2022/03/16 01:37:45;;;;;;;42.28;19.95;;;7.10;99.90;;;;;;4185420;28;20056;-88
2022/03/16 01:39:46;;;;;;;52.30;21.00;;;;;;;;;;4185214;28;20056;-87
2022/03/16 01:41:47;;;;;;;41.45;19.83;;;5.80;99.90;;;;;;4184762;28;20094;-88
2022/03/16 01:43:53;;;;;;;43.67;19.15;;;7.40;99.90;;;;;;4185226;28;20068;-87
2022/03/16 01:45:54;;;;;;;45.80;20.05;;;6.00;99.90;;;;;;4183372;28;20049;-87
2022/03/16 01:47:55;;;;;;;45.28;19.73;;;6.20;99.90;;;;;;4184777;28;20067;-87
2022/03/16 01:49:56;;;;;;;45.80;19.88;;;5.80;99.90;;;;;;4182656;28;20132;-88
2022/03/16 01:51:56;;;;;;;46.88;19.67;;;7.00;99.90;;;;;;4166860;28;20457;-88
2022/03/16 01:53:58;;;;;;;50.38;21.77;;;6.30;99.90;;;;;;4183383;28;20041;-88
2022/03/16 01:56:00;;;;;;;43.97;20.35;;;7.20;99.90;;;;;;4167102;28;20056;-88
2022/03/16 01:58:02;;;;;;;47.55;20.77;;;;;;;;;;4182744;28;20049;-87
2022/03/16 02:00:07;;;;;;;43.42;20.27;;;7.20;99.90;;;;;;4185023;28;20058;-87
2022/03/16 02:02:09;;;;;;;45.75;21.80;;;6.30;99.90;;;;;;4183372;28;20508;-87
2022/03/16 02:04:09;;;;;;;47.22;20.75;;;6.60;99.90;;;;;;4183096;28;20045;-88
2022/03/16 02:06:10;;;;;;;45.03;20.13;;;6.00;99.90;;;;;;4182828;28;20083;-88
2022/03/16 02:08:11;;;;;;;39.83;19.42;;;;;;;;;;4182883;28;20581;-87
2022/03/16 02:10:12;;;;;;;55.47;21.63;;;;;;;;;;4184294;28;20044;-87
2022/03/16 02:12:13;;;;;;;45.17;20.02;;;6.90;99.90;;;;;;4182642;28;20052;-87
2022/03/16 02:14:14;;;;;;;46.22;21.48;;;6.90;99.90;;;;;;4182465;28;20211;-87
2022/03/16 02:16:16;;;;;;;44.83;20.23;;;5.90;99.90;;;;;;4183277;28;20124;-88
2022/03/16 02:18:16;;;;;;;51.60;21.60;;;6.60;99.90;;;;;;4182749;28;20111;-88
2022/03/16 02:20:18;;;;;;;40.60;20.10;;;6.90;99.90;;;;;;4183005;28;20057;-88
2022/03/16 02:22:19;;;;;;;44.45;20.48;;;;;;;;;;4183776;28;20063;-88
2022/03/16 02:24:23;;;;;;;45.72;21.40;;;;;;;;;;4166999;28;20128;-88
2022/03/16 02:26:26;;;;;;;47.30;20.88;;;;;;;;;;4166492;28;20053;-87
2022/03/16 02:28:28;;;;;;;40.72;19.40;;;;;;;;;;4182972;28;20162;-87
2022/03/16 02:30:29;;;;;;;44.72;20.40;;;;;;;;;;4171191;28;20072;-88
2022/03/16 02:32:30;;;;;;;49.60;20.17;;;;;;;;;;4148735;28;20122;-87
2022/03/16 02:34:32;;;;;;;43.90;19.23;;;;;;;;;;4165205;28;20467;-87
2022/03/16 02:36:33;;;;;;;47.50;22.15;;;;;;;;;;4164258;28;20049;-87
2022/03/16 02:38:34;;;;;;;51.17;20.92;;;;;;;;;;4148241;28;20128;-87
2022/03/16 02:40:36;;;;;;;44.50;20.48;;;;;;;;;;4164506;28;20052;-87
2022/03/16 02:42:37;;;;;;;46.60;21.45;;;;;;;;;;4147950;28;20053;-88
2022/03/16 02:44:37;;;;;;;44.00;19.85;;;6.70;99.90;;;;;;4164268;28;20048;-88
2022/03/16 02:46:39;;;;;;;43.70;20.27;;;5.30;99.90;;;;;;4162067;28;20041;-87
2022/03/16 02:48:41;;;;;;;47.47;19.73;;;6.10;99.90;;;;;;4165733;28;20484;-87
2022/03/16 02:50:41;;;;;;;46.08;19.60;;;6.60;99.90;;;;;;4182674;28;20415;-88
2022/03/16 02:52:44;;;;;;;38.38;18.85;;;5.50;99.90;;;;;;4182393;28;20127;-89
2022/03/16 02:54:45;;;;;;;44.55;21.48;;;6.30;99.90;;;;;;4182439;28;20430;-88
2022/03/16 02:56:47;;;;;;;47.67;20.83;;;5.40;99.90;;;;;;4183409;28;20037;-88
2022/03/16 02:58:48;;;;;;;39.80;19.58;;;5.90;99.90;;;;;;4184177;28;20123;-87
2022/03/16 03:00:49;;;;;;;42.08;19.80;;;6.80;99.90;;;;;;4182928;28;20048;-88
2022/03/16 03:02:49;;;;;;;42.53;18.45;;;6.20;99.90;;;;;;4198781;28;20510;-87
2022/03/16 03:04:50;;;;;;;42.38;19.80;;;6.40;99.90;;;;;;4165613;28;20054;-87
2022/03/16 03:06:51;;;;;;;39.50;18.83;;;5.40;99.90;;;;;;4183753;28;20147;-87
2022/03/16 03:08:52;;;;;;;35.00;17.00;;;6.00;99.90;;;;;;4183829;28;20037;-87
2022/03/16 03:10:53;;;;;;;41.00;18.67;;;;;;;;;;4182239;28;20049;-88
2022/03/16 03:12:54;;;;;;;38.80;17.50;;;6.20;99.90;;;;;;4182943;28;20462;-88
2022/03/16 03:14:55;;;;;;;36.60;17.52;;;;;;;;;;4183222;28;20041;-88
2022/03/16 03:16:56;;;;;;;35.75;17.58;;;;;;;;;;4183343;28;20084;-87
2022/03/16 03:18:57;;;;;;;38.08;17.85;;;;;;;;;;4181671;28;20559;-87
2022/03/16 03:20:58;;;;;;;34.85;17.88;;;;;;;;;;4166034;28;20049;-88
2022/03/16 03:22:59;;;;;;;36.05;17.45;;;;;;;;;;4165504;28;20046;-88
2022/03/16 03:25:00;;;;;;;41.92;17.02;;;5.50;99.90;;;;;;4181381;28;20052;-88
2022/03/16 03:27:01;;;;;;;35.50;15.98;;;4.90;99.90;;;;;;4183013;28;20041;-88
2022/03/16 03:29:02;;;;;;;38.53;17.90;;;;;;;;;;4165205;28;20426;-87
2022/03/16 03:31:04;;;;;;;46.55;19.85;;;5.60;99.90;;;;;;4182538;28;20055;-88
2022/03/16 03:33:04;;;;;;;45.55;18.63;;;5.90;99.90;;;;;;4181263;28;20089;-87
2022/03/16 03:35:06;;;;;;;41.60;19.77;;;4.90;99.90;;;;;;4183165;28;20040;-87
2022/03/16 03:37:07;;;;;;;43.03;19.88;;;4.90;99.90;;;;;;4182270;28;20049;-88
2022/03/16 03:39:10;;;;;;;42.67;19.40;;;5.50;99.90;;;;;;4181598;28;20095;-88
2022/03/16 03:41:12;;;;;;;45.35;21.60;;;5.60;99.90;;;;;;4169338;28;20050;-87
2022/03/16 03:43:12;;;;;;;48.50;20.35;;;6.10;99.90;;;;;;4166962;28;20403;-88
2022/03/16 03:45:13;;;;;;;48.95;21.05;;;4.90;99.90;;;;;;4149347;28;20050;-88
2022/03/16 03:47:16;;;;;;;46.45;20.25;;;4.80;99.90;;;;;;4168872;28;20029;-88
2022/03/16 03:49:16;;;;;;;41.63;18.38;;;5.00;99.90;;;;;;4180659;28;20052;-88
2022/03/16 03:51:17;;;;;;;39.20;18.85;;;5.30;99.90;;;;;;4179741;28;20060;-88
2022/03/16 03:53:18;;;;;;;43.47;17.67;;;;;;;;;;4180030;28;20056;-88
2022/03/16 03:55:19;;;;;;;41.67;18.48;;;5.90;99.90;;;;;;4180091;28;20044;-88
2022/03/16 03:57:20;;;;;;;32.10;16.15;;;5.30;99.90;;;;;;4180782;28;20128;-87
2022/03/16 03:59:23;;;;;;;35.53;15.15;;;6.10;99.90;;;;;;4182380;28;20384;-88
2022/03/16 04:01:23;;;;;;;32.17;15.32;;;5.70;99.90;;;;;;4181733;28;20041;-87
2022/03/16 04:03:24;;;;;;;31.13;13.95;;;5.10;99.90;;;;;;4179805;28;20048;-87
2022/03/16 04:05:26;;;;;;;35.63;15.07;;;5.40;99.90;;;;;;4182079;28;20442;-86
2022/03/16 04:07:27;;;;;;;33.28;15.57;;;;;;;;;;4164736;28;20053;-87
2022/03/16 04:09:28;;;;;;;29.83;14.13;;;;;;;;;;4179859;28;20110;-87
2022/03/16 04:11:29;;;;;;;27.70;13.95;;;;;;;;;;4179967;28;20049;-87
2022/03/16 04:13:31;;;;;;;32.70;14.20;;;;;;;;;;4163107;28;20547;-87
2022/03/16 04:15:34;;;;;;;29.67;15.05;;;;;;;;;;4179528;28;20044;-87
2022/03/16 04:17:35;;;;;;;38.38;15.18;;;;;;;;;;4162867;28;20446;-87
2022/03/16 04:19:37;;;;;;;32.22;13.77;;;;;;;;;;4179666;28;20419;-88
2022/03/16 04:21:38;;;;;;;32.35;14.55;;;;;;;;;;4176020;28;20132;-88
2022/03/16 04:23:40;;;;;;;37.78;17.92;;;;;;;;;;4181136;28;20049;-88
2022/03/16 04:25:41;;;;;;;39.42;16.70;;;;;;;;;;4180742;28;20044;-88
2022/03/16 04:27:43;;;;;;;42.75;17.33;;;;;;;;;;4163191;28;20092;-88
2022/03/16 04:29:44;;;;;;;37.95;16.60;;;;;;;;;;4163260;28;20534;-87
2022/03/16 04:31:46;;;;;;;37.30;18.05;;;;;;;;;;4178727;28;20507;-88
2022/03/16 04:33:47;;;;;;;37.30;17.08;;;;;;;;;;4179164;28;20053;-88
2022/03/16 04:35:49;;;;;;;42.33;17.33;;;;;;;;;;4180513;28;20076;-88
2022/03/16 04:37:50;;;;;;;42.95;18.55;;;;;;;;;;4179722;28;20045;-87
2022/03/16 04:39:52;;;;;;;38.65;18.35;;;4.50;99.90;;;;;;4181188;28;20098;-87
2022/03/16 04:41:54;;;;;;;44.00;18.17;;;;;;;;;;4182574;28;20081;-88
2022/03/16 04:43:55;;;;;;;44.08;18.92;;;;;;;;;;4184506;28;20036;-88
2022/03/16 04:45:58;;;;;;;41.72;18.02;;;;;;;;;;4183734;28;20053;-88
2022/03/16 04:47:59;;;;;;;45.10;17.85;;;;;;;;;;4184289;28;20044;-88
2022/03/16 04:50:01;;;;;;;39.30;16.88;;;;;;;;;;4184343;28;20056;-88
2022/03/16 04:52:02;;;;;;;41.42;17.30;;;;;;;;;;4185551;28;20174;-88
2022/03/16 04:54:04;;;;;;;43.10;17.40;;;;;;;;;;4183841;28;20095;-88
2022/03/16 04:56:05;;;;;;;43.28;18.13;;;;;;;;;;4185044;28;20045;-88
2022/03/16 04:58:08;;;;;;;36.03;15.95;;;;;;;;;;4167688;28;20045;-87
2022/03/16 05:00:10;;;;;;;35.33;16.90;;;;;;;;;;4184718;28;20049;-87
2022/03/16 05:02:11;;;;;;;39.72;17.65;;;;;;;;;;4167990;28;20069;-87
2022/03/16 05:04:13;;;;;;;38.47;17.77;;;;;;;;;;4184369;28;20062;-87
2022/03/16 05:06:15;;;;;;;40.75;17.60;;;;;;;;;;4185086;28;20527;-87
2022/03/16 05:08:17;;;;;;;38.03;16.88;;;;;;;;;;4168819;28;20586;-87
2022/03/16 05:10:18;;;;;;;45.40;17.40;;;;;;;;;;4184785;28;20099;-88
2022/03/16 05:12:20;;;;;;;38.15;18.30;;;;;;;;;;4186193;28;20049;-87
2022/03/16 05:14:21;;;;;;;42.65;17.30;;;;;;;;;;4187315;28;20515;-86
2022/03/16 05:16:22;;;;;;;38.92;17.38;;;;;;;;;;4182851;28;20044;-88
2022/03/16 05:18:25;;;;;;;41.38;18.15;;;;;;;;;;4196899;28;20565;-87
2022/03/16 05:20:26;;;;;;;41.47;18.45;;;;;;;;;;4199745;28;20049;-87
2022/03/16 05:22:27;;;;;;;41.97;19.02;;;;;;;;;;4199986;28;20045;-87
2022/03/16 05:24:29;;;;;;;39.60;17.17;;;;;;;;;;4189426;28;20091;-88
2022/03/16 05:26:31;;;;;;;41.50;18.20;;;;;;;;;;4168295;28;20069;-88
2022/03/16 05:28:32;;;;;;;43.78;17.98;;;;;;;;;;4186769;28;20474;-88
2022/03/16 05:30:34;;;;;;;43.38;18.27;;;;;;;;;;4186324;28;20037;-88
2022/03/16 05:32:39;;;;;;;41.13;18.85;;;;;;;;;;4159961;28;20550;-88
2022/03/16 05:34:40;;;;;;;48.00;17.13;;;;;;;;;;4151949;28;20061;-88
2022/03/16 05:36:41;;;;;;;42.88;18.70;;;;;;;;;;4169357;28;20104;-88
2022/03/16 05:38:42;;;;;;;45.58;18.77;;;;;;;;;;4152125;28;20054;-88
2022/03/16 05:40:46;;;;;;;44.53;19.48;;;;;;;;;;4169003;28;20041;-88
2022/03/16 05:42:47;;;;;;;44.40;19.02;;;;;;;;;;4151348;28;20056;-88
2022/03/16 05:44:49;;;;;;;48.67;19.50;;;;;;;;;;4167284;28;20132;-85
2022/03/16 05:46:50;;;;;;;42.88;19.15;;;;;;;;;;4167248;28;20037;-88
2022/03/16 05:48:51;;;;;;;48.05;19.70;;;;;;;;;;4167554;28;20052;-88
2022/03/16 05:50:52;;;;;;;52.50;18.92;;;;;;;;;;4151118;28;20057;-89
2022/03/16 05:52:55;;;;;;;50.75;22.00;;;;;;;;;;4167510;28;20045;-89
2022/03/16 05:54:57;;;;;;;47.88;20.73;;;;;;;;;;4167954;28;20045;-89
2022/03/16 05:56:58;;;;;;;48.53;19.60;;;;;;;;;;4151959;28;20050;-89
2022/03/16 05:59:00;;;;;;;46.25;21.02;;;;;;;;;;4167116;28;20052;-88
2022/03/16 06:01:02;;;;;;;46.13;21.13;;;;;;;;;;4171762;28;20072;-89
2022/03/16 06:03:03;;;;;;;55.85;21.30;;;;;;;;;;4176053;28;20103;-89
2022/03/16 06:05:04;;;;;;;53.00;20.77;;;;;;;;;;4176375;28;20479;-89
2022/03/16 06:07:07;;;;;;;50.58;20.30;;;;;;;;;;4170680;28;20048;-88
2022/03/16 06:09:09;;;;;;;49.70;19.25;;;;;;;;;;4169149;28;20053;-88
2022/03/16 06:11:11;;;;;;;65.80;20.90;;;;;;;;;;4169119;28;20050;-89
2022/03/16 06:13:12;;;;;;;50.72;20.85;;;;;;;;;;4168670;28;20132;-89
2022/03/16 06:15:13;;;;;;;48.67;20.30;;;;;;;;;;4169335;28;20072;-88
2022/03/16 06:17:15;;;;;;;46.58;18.52;;;;;;;;;;4168070;28;20049;-88
2022/03/16 06:19:16;;;;;;;47.67;20.70;;;;;;;;;;4164035;28;20064;-89
2022/03/16 06:21:19;;;;;;;48.30;20.05;;;;;;;;;;4185071;28;20056;-89
2022/03/16 06:23:20;;;;;;;45.00;20.55;;;;;;;;;;4168353;28;20049;-88
2022/03/16 06:25:25;;;;;;;47.13;20.10;;;;;;;;;;4184376;28;20037;-88
2022/03/16 06:27:26;;;;;;;50.70;19.92;;;;;;;;;;4184919;28;20048;-89
2022/03/16 06:29:35;;;;;;;44.88;18.60;;;;;;;;;;4185114;28;20127;-89
2022/03/16 06:31:36;;;;;;;51.92;18.85;;;;;;;;;;4167789;28;20439;-89
2022/03/16 06:33:37;;;;;;;44.95;19.70;;;;;;;;;;4168077;28;20065;-89
2022/03/16 06:35:40;;;;;;;45.97;18.75;;;;;;;;;;4183905;28;20057;-89
2022/03/16 06:37:43;;;;;;;49.05;20.42;;;;;;;;;;4167739;28;20045;-89
2022/03/16 06:39:44;;;;;;;48.55;20.08;;;;;;;;;;4184485;28;20482;-89
2022/03/16 06:41:45;;;;;;;46.97;17.90;;;;;;;;;;4183691;28;20407;-89
2022/03/16 06:43:47;;;;;;;45.90;19.02;;;;;;;;;;4167248;28;20104;-88
2022/03/16 06:45:48;;;;;;;44.22;19.00;;;;;;;;;;4185087;28;20044;-89
2022/03/16 06:47:50;;;;;;;48.03;19.00;;;;;;;;;;4184608;28;20084;-89
2022/03/16 06:49:51;;;;;;;49.78;20.17;;;;;;;;;;4187196;28;20045;-89
2022/03/16 06:51:53;;;;;;;48.60;18.73;;;;;;;;;;4184613;28;20113;-89
2022/03/16 06:53:55;;;;;;;48.13;19.55;;;;;;;;;;4186276;28;20479;-89
2022/03/16 06:55:58;;;;;;;46.63;20.27;;;;;;;;;;4183840;28;20056;-89
2022/03/16 06:58:00;;;;;;;45.80;19.80;;;;;;;;;;4183709;28;20104;-88
2022/03/16 07:00:04;;;;;;;50.30;20.08;;;;;;;;;;4183905;28;20343;-89
2022/03/16 07:02:05;;;;;;;45.42;18.52;;;;;;;;;;4184499;28;20049;-89
2022/03/16 07:04:08;;;;;;;46.75;19.35;;;;;;;;;;4183300;28;20431;-88
2022/03/16 07:06:10;;;;;;;40.67;18.15;;;;;;;;;;4185783;28;20052;-89
2022/03/16 07:08:13;;;;;;;45.17;18.30;;;;;;;;;;4168477;28;20080;-89
2022/03/16 07:10:14;;;;;;;47.22;18.90;;;;;;;;;;4166430;28;20445;-89
2022/03/16 07:12:15;;;;;;;42.45;19.38;;;4.90;99.90;;;;;;4186565;28;20076;-87
2022/03/16 07:14:32;;;;;;;44.70;19.73;;;5.30;99.90;;;;;;4169842;28;20141;-88
2022/03/16 07:16:33;;;;;;;51.00;19.20;;;5.30;99.90;;;;;;4168382;28;20392;-89
2022/03/16 07:18:34;;;;;;;44.38;19.85;;;6.20;99.90;;;;;;4166729;28;20048;-89
2022/03/16 07:20:35;;;;;;;42.38;18.27;;;5.00;99.90;;;;;;4168135;28;20049;-88
2022/03/16 07:22:36;;;;;;;42.38;18.02;;;5.10;99.90;;;;;;4183725;28;20053;-89
2022/03/16 07:24:37;;;;;;;43.80;19.60;;;5.70;99.90;;;;;;4150415;28;20085;-86
2022/03/16 07:26:39;;;;;;;47.42;21.55;;;5.20;99.90;;;;;;4149321;28;20046;-85
2022/03/16 07:28:39;;;;;;;41.65;18.77;;;5.80;99.90;;;;;;4164747;28;20479;-84
2022/03/16 07:30:42;;;;;;;42.72;19.52;;;5.80;99.90;;;;;;4148703;28;20112;-85
2022/03/16 07:32:44;;;;;;;47.30;18.63;;;6.40;99.90;;;;;;4173314;28;20056;-85
2022/03/16 07:34:46;;;;;;;43.97;20.00;;;6.50;99.90;;;;;;4181448;28;20411;-84
2022/03/16 07:36:48;;;;;;;44.80;19.23;;;5.50;99.90;;;;;;4183068;28;20411;-84
2022/03/16 07:38:49;;;;;;;45.78;19.55;;;5.50;99.90;;;;;;4182920;28;20130;-85
2022/03/16 07:40:50;;;;;;;41.45;19.02;;;5.90;99.90;;;;;;4182931;28;20041;-85
2022/03/16 07:42:51;;;;;;;49.83;19.58;;;5.70;99.90;;;;;;4183060;28;20063;-85
2022/03/16 07:44:52;;;;;;;39.30;18.33;;;6.60;99.90;;;;;;4165252;28;20047;-85
2022/03/16 07:46:53;;;;;;;39.45;18.63;;;;;;;;;;4164518;28;20063;-85
2022/03/16 07:48:54;;;;;;;33.42;17.48;;;;;;;;;;4183020;28;20061;-85
2022/03/16 07:50:56;;;;;;;40.72;19.80;;;;;;;;;;4165998;28;20436;-85
2022/03/16 07:52:58;;;;;;;42.38;18.58;;;;;;;;;;4181322;28;20049;-84
2022/03/16 07:54:59;;;;;;;39.22;18.10;;;;;;;;;;4183292;28;20199;-84
2022/03/16 07:57:01;;;;;;;40.10;18.08;;;;;;;;;;4181563;28;20049;-84
2022/03/16 07:59:02;;;;;;;34.63;16.92;;;;;;;;;;4182589;28;20075;-84
2022/03/16 08:01:04;;;;;;;37.13;17.95;;;;;;;;;;4182211;28;20041;-85
2022/03/16 08:03:06;;;;;;;45.05;19.90;;;;;;;;;;4182823;28;20402;-84
2022/03/16 08:05:08;;;;;;;37.47;18.52;;;;;;;;;;4182339;28;20041;-84
2022/03/16 08:07:09;;;;;;;37.40;17.95;;;;;;;;;;4183158;28;20040;-85
2022/03/16 08:09:10;;;;;;;38.20;18.35;;;;;;;;;;4182816;28;20041;-84
2022/03/16 08:11:11;;;;;;;38.80;18.60;;;;;;;;;;4182301;28;20049;-84
2022/03/16 08:13:13;;;;;;;32.17;17.27;;;;;;;;;;4182547;28;20446;-85
2022/03/16 08:15:14;;;;;;;37.72;17.70;;;;;;;;;;4182708;28;20084;-84
2022/03/16 08:17:15;;;;;;;34.17;19.00;;;;;;;;;;4180734;28;20041;-84
2022/03/16 08:19:16;;;;;;;39.50;17.55;;;;;;;;;;4182594;28;20551;-84
2022/03/16 08:21:17;;;;;;;32.83;17.02;;;;;;;;;;4182369;28;20048;-85
2022/03/16 08:23:19;;;;;;;34.15;16.63;;;;;;;;;;4182311;28;20487;-85
2022/03/16 08:25:21;;;;;;;37.00;18.63;;;;;;;;;;4178042;28;20167;-85
2022/03/16 08:27:23;;;;;;;33.15;17.33;;;;;;;;;;4173282;28;20058;-84
2022/03/16 08:29:24;;;;;;;33.45;16.15;;;;;;;;;;4166523;28;20049;-84
2022/03/16 08:31:25;;;;;;;31.45;15.95;;;;;;;;;;4173552;28;20132;-86
2022/03/16 08:33:26;;;;;;;33.10;15.50;;;;;;;;;;4178136;28;20068;-84
2022/03/16 08:35:27;;;;;;;34.20;16.52;;;;;;;;;;4176296;28;20580;-84
2022/03/16 08:37:29;;;;;;;35.55;16.25;;;;;;;;;;4182698;28;20398;-84
2022/03/16 08:39:31;;;;;;;30.55;16.48;;;;;;;;;;4182655;28;20129;-84
2022/03/16 08:41:33;;;;;;;30.95;16.40;;;;;;;;;;4181363;28;20044;-84
2022/03/16 08:43:35;;;;;;;28.00;14.88;;;;;;;;;;4165200;28;20495;-85
2022/03/16 08:45:36;;;;;;;32.30;15.73;;;;;;;;;;4180742;28;20053;-84
2022/03/16 08:47:38;;;;;;;25.58;14.65;;;;;;;;;;4182244;28;20538;-84
2022/03/16 08:49:39;;;;;;;28.60;15.23;;;;;;;;;;4182091;28;20549;-84
2022/03/16 08:51:40;;;;;;;30.40;16.02;;;;;;;;;;4180558;28;20072;-84
2022/03/16 08:53:41;;;;;;;33.70;16.65;;;;;;;;;;4177785;28;20041;-84
2022/03/16 08:55:42;;;;;;;29.70;14.85;;;;;;;;;;4181726;28;20056;-84
2022/03/16 08:57:43;;;;;;;28.05;14.80;;;;;;;;;;4180573;28;20049;-84
2022/03/16 08:59:45;;;;;;;26.50;13.52;;;;;;;;;;4163577;28;20559;-84
2022/03/16 09:01:46;;;;;;;30.50;14.50;;;;;;;;;;4181485;28;20036;-84
2022/03/16 09:03:47;;;;;;;28.25;14.93;;;;;;;;;;4180783;28;20514;-84
2022/03/16 09:05:49;;;;;;;23.67;12.35;;;;;;;;;;4181306;28;20135;-84
2022/03/16 09:07:50;;;;;;;26.73;14.32;;;;;;;;;;4181433;28;20466;-84
2022/03/16 09:09:51;;;;;;;22.95;12.90;;;;;;;;;;4182446;28;20120;-84
2022/03/16 09:11:52;;;;;;;23.65;12.10;;;;;;;;;;4180782;28;20061;-83
2022/03/16 09:13:53;;;;;;;24.65;13.52;;;;;;;;;;4182396;28;20142;-84
2022/03/16 09:15:55;;;;;;;27.73;13.98;;;;;;;;;;4176278;28;20494;-84
2022/03/16 09:17:58;;;;;;;21.83;12.88;;;;;;;;;;4189189;28;20055;-83
2022/03/16 09:19:59;;;;;;;27.08;13.77;;;;;;;;;;4196583;28;20048;-83
2022/03/16 09:22:04;;;;;;;22.25;11.75;;;;;;;;;;4186015;28;20092;-84
2022/03/16 09:24:05;;;;;;;23.88;11.80;;;;;;;;;;4197294;28;20033;-85
2022/03/16 09:26:06;;;;;;;21.65;12.55;;;;;;;;;;4195616;28;20048;-84
2022/03/16 09:28:08;;;;;;;24.35;13.07;;;;;;;;;;4197580;28;20052;-85
2022/03/16 09:30:09;;;;;;;20.83;11.27;;;;;;;;;;4198687;28;20098;-86
2022/03/16 09:32:10;;;;;;;24.98;11.20;;;;;;;;;;4200061;28;20020;-84
2022/03/16 09:34:13;;;;;;;20.88;12.02;;;;;;;;;;4199607;28;20056;-85
2022/03/16 09:36:14;;;;;;;20.65;11.65;;;;;;;;;;4200273;28;20051;-85
2022/03/16 09:38:18;;;;;;;24.75;11.57;;;;;;;;;;4199340;28;20101;-86
2022/03/16 09:40:25;;;;;;;21.88;12.07;;;;;;;;;;4197426;28;20037;-82
2022/03/16 09:42:29;;;;;;;23.25;12.02;;;;;;;;;;4182348;28;20030;-83
2022/03/16 09:44:31;;;;;;;22.90;13.55;;;;;;;;;;4189065;28;20124;-83
2022/03/16 09:46:34;;;;;;;21.60;11.95;;;;;;;;;;4195774;28;20049;-83
2022/03/16 09:48:35;;;;;;;21.77;13.18;;;;;;;;;;4195879;28;20069;-81
2022/03/16 09:50:41;;;;;;;22.90;12.25;;;;;;;;;;4194546;28;20046;-82
2022/03/16 09:52:44;;;;;;;24.08;12.43;;;;;;;;;;4198120;28;20044;-83
2022/03/16 09:54:45;;;;;;;23.05;12.07;;;;;;;;;;4196272;28;20043;-83
2022/03/16 09:56:47;;;;;;;26.88;13.05;;;;;;;;;;4191362;28;20037;-82
2022/03/16 09:58:49;;;;;;;22.48;11.68;;;;;;;;;;4191874;28;20593;-83
2022/03/16 10:00:52;;;;;;;23.05;12.52;;;;;;;;;;4199027;28;20047;-83
2022/03/16 10:02:54;;;;;;;24.13;12.30;;;;;;;;;;4196390;28;20045;-81
2022/03/16 10:04:55;;;;;;;20.73;11.93;;;;;;;;;;4196022;28;20048;-82
2022/03/16 10:06:58;;;;;;;18.98;10.18;;;;;;;;;;4200152;28;20108;-83
2022/03/16 10:14:06;;;;;;;16.50;8.98;;;;;;;;;;4192437;28;19920;-83
2022/03/16 10:16:10;;;;;;;20.33;9.45;;;;;;;;;;4189757;28;20458;-84
2022/03/16 10:18:14;;;;;;;17.92;9.07;;;;;;;;;;4187024;28;20080;-83
2022/03/16 10:20:26;;;;;;;15.95;8.93;;;;;;;;;;4182453;28;20130;-83
2022/03/16 10:22:31;;;;;;;15.68;9.85;;;;;;;;;;4182443;28;20498;-83
2022/03/16 10:24:32;;;;;;;16.95;8.73;;;;;;;;;;4182394;28;20099;-84
2022/03/16 10:26:33;;;;;;;17.75;8.88;;;;;;;;;;4182169;28;20071;-83
2022/03/16 10:28:34;;;;;;;16.50;8.25;;;;;;;;;;4182574;28;20048;-82
2022/03/16 10:30:35;;;;;;;16.95;8.32;;;;;;;;;;4182777;28;20059;-83
2022/03/16 10:32:36;;;;;;;16.55;8.10;;;;;;;;;;4182376;28;20372;-83
2022/03/16 10:34:48;;;;;;;16.58;8.90;;;;;;;;;;4182647;28;20059;-83
2022/03/16 10:36:49;;;;;;;16.67;8.80;;;;;;;;;;4182452;28;20063;-84
2022/03/16 10:38:51;;;;;;;15.15;8.57;;;;;;;;;;4180598;28;20045;-84
2022/03/16 10:40:56;;;;;;;14.05;7.47;;;;;;;;;;4182473;28;20041;-83
2022/03/16 10:47:50;;;;;;;14.00;7.95;;;;;;;;;;4181840;28;20451;-84
2022/03/16 10:50:06;;;;;;;13.93;8.13;;;;;;;;;;4180720;28;20593;-83
2022/03/16 10:52:10;;;;;;;16.45;7.85;;;;;;;;;;4181242;28;20049;-84
2022/03/16 10:54:15;;;;;;;16.35;8.77;;;;;;;;;;4182036;28;20529;-84
2022/03/16 10:56:18;;;;;;;15.68;9.20;;;;;;;;;;4181616;28;20080;-84
2022/03/16 10:58:20;;;;;;;15.50;8.73;;;;;;;;;;4181801;28;20051;-83
2022/03/16 11:00:21;;;;;;;13.70;8.18;;;;;;;;;;4180987;28;20129;-84
2022/03/16 11:02:24;;;;;;;20.55;9.85;;;;;;;;;;4181279;28;20051;-84
2022/03/16 11:04:26;;;;;;;14.27;8.43;;;;;;;;;;4181242;28;20041;-84
2022/03/16 11:06:27;;;;;;;16.42;9.45;;;;;;;;;;4179337;28;20146;-84
2022/03/16 11:08:28;;;;;;;16.58;9.00;;;;;;;;;;4181116;28;20048;-84
2022/03/16 11:10:29;;;;;;;17.33;9.57;;;;;;;;;;4180982;28;20101;-85
2022/03/16 11:14:53;;;;;;;18.25;7.65;;;;;;;;;;4181127;28;20510;-83
2022/03/16 11:16:54;;;;;;;19.73;7.95;;;;;;;;;;4181666;28;20513;-83
2022/03/16 11:18:58;;;;;;;12.32;7.70;;;;;;;;;;4181750;28;20398;-84
2022/03/16 11:21:05;;;;;;;12.77;6.70;;;;;;;;;;4181235;28;20495;-84
2022/03/16 11:25:28;;;;;;;14.23;7.50;;;;;;;;;;4179712;28;20095;-84
2022/03/16 11:27:42;;;;;;;14.90;7.63;;;;;;;;;;4180978;28;20041;-83
2022/03/16 11:29:46;;;;;;;12.52;7.30;;;;;;;;;;4180185;28;20048;-84
2022/03/16 11:31:48;;;;;;;14.07;7.55;;;;;;;;;;4182323;28;20041;-84
2022/03/16 11:33:50;;;;;;;13.55;8.00;;;;;;;;;;4181344;28;20107;-84
2022/03/16 11:35:52;;;;;;;15.93;8.57;;;;;;;;;;4181068;28;20049;-84
2022/03/16 11:37:59;;;;;;;15.52;7.45;;;;;;;;;;4179690;28;20047;-84